createdAt,value
2022-08-22T00:02:00.371Z,52.83
2022-08-22T00:05:03.301Z,52.60
2022-08-22T00:10:33.367Z,56.60
2022-08-22T00:13:16.715Z,67.88
2022-08-22T00:15:53.206Z,63.90
2022-08-22T00:18:37.606Z,69.30
2022-08-22T00:21:30.471Z,69.85
2022-08-22T00:24:17.860Z,72.68
2022-08-22T00:27:23.708Z,67.10
2022-08-22T00:29:57.341Z,69.07
2022-08-22T00:32:39.551Z,73.30
2022-08-22T00:35:15.991Z,72.70
2022-08-22T00:38:15.883Z,82.45
2022-08-22T00:41:01.357Z,69.63
2022-08-22T00:44:22.995Z,78.43
2022-08-22T00:47:11.481Z,84.15
2022-08-22T00:50:16.360Z,85.72
2022-08-22T00:53:03.348Z,85.57
2022-08-22T00:56:08.455Z,84.70
2022-08-22T00:58:41.691Z,83.45
2022-08-22T01:01:12.912Z,85.68
2022-08-22T01:03:47.122Z,90.10
2022-08-22T01:06:49.368Z,82.15
2022-08-22T01:09:36.269Z,71.80
2022-08-22T01:12:13.035Z,66.10
2022-08-22T01:14:55.876Z,55.97
2022-08-22T01:20:11.542Z,51.85
2022-08-22T01:22:57.245Z,49.78
2022-08-22T01:26:17.129Z,53.75
2022-08-22T01:28:53.068Z,47.83
2022-08-22T01:31:41.186Z,46.58
2022-08-22T01:34:27.164Z,46.88
2022-08-22T01:37:12.516Z,39.58
2022-08-22T01:39:42.640Z,38.97
2022-08-22T01:42:48.183Z,46.63
2022-08-22T01:45:36.773Z,48.72
2022-08-22T01:48:20.449Z,47.10
2022-08-22T01:50:58.696Z,45.55
2022-08-22T01:53:44.444Z,40.28
2022-08-22T01:56:15.194Z,35.90
2022-08-22T01:58:47.142Z,47.03
2022-08-22T02:01:23.260Z,62.85
2022-08-22T02:04:16.658Z,60.78
2022-08-22T02:07:11.909Z,70.80
2022-08-22T02:09:52.615Z,71.40
2022-08-22T02:12:49.386Z,71.43
2022-08-22T02:15:16.558Z,82.97
2022-08-22T02:18:07.039Z,83.45
2022-08-22T02:20:43.807Z,86.78
2022-08-22T02:23:43.287Z,90.32
2022-08-22T02:26:16.973Z,97.90
2022-08-22T02:28:58.070Z,96.35
2022-08-22T02:31:44.220Z,99.63
2022-08-22T02:34:31.325Z,102.82
2022-08-22T02:37:05.334Z,99.68
2022-08-22T02:40:04.355Z,103.63
2022-08-22T02:42:55.730Z,96.90
2022-08-22T02:45:53.707Z,100.18
2022-08-22T02:49:03.942Z,97.05
2022-08-22T02:51:50.064Z,97.93
2022-08-22T02:54:31.512Z,101.75
2022-08-22T02:57:39.672Z,102.10
2022-08-22T03:00:31.891Z,108.18
2022-08-22T03:03:16.410Z,101.22
2022-08-22T03:05:43.675Z,94.88
2022-08-22T03:08:22.741Z,100.68
2022-08-22T03:10:56.641Z,96.97
2022-08-22T03:13:49.572Z,105.88
2022-08-22T03:16:34.104Z,97.82
2022-08-22T03:19:23.982Z,98.13
2022-08-22T03:22:02.366Z,99.13
2022-08-22T03:24:48.945Z,101.38
2022-08-22T03:27:32.704Z,93.07
2022-08-22T03:30:23.032Z,99.35
2022-08-22T03:32:50.429Z,99.32
2022-08-22T03:35:39.421Z,95.28
2022-08-22T03:38:40.541Z,97.32
2022-08-22T03:41:32.644Z,97.90
2022-08-22T03:44:38.124Z,97.78
2022-08-22T03:47:08.023Z,108.00
2022-08-22T03:50:01.662Z,98.53
2022-08-22T03:53:15.412Z,93.35
2022-08-22T03:56:14.557Z,95.28
2022-08-22T03:59:03.332Z,101.00
2022-08-22T04:01:51.849Z,97.03
2022-08-22T04:04:31.830Z,98.68
2022-08-22T04:07:36.863Z,94.10
2022-08-22T04:10:54.820Z,98.82
2022-08-22T04:13:43.536Z,101.95
2022-08-22T04:17:01.441Z,97.05
2022-08-22T04:19:45.531Z,97.45
2022-08-22T04:22:36.823Z,97.10
2022-08-22T04:25:14.566Z,97.35
2022-08-22T04:27:53.302Z,95.43
2022-08-22T04:30:26.021Z,94.20
2022-08-22T04:33:11.378Z,99.25
2022-08-22T04:35:50.740Z,95.25
2022-08-22T04:38:28.662Z,95.68
2022-08-22T04:41:20.644Z,99.90
2022-08-22T04:44:09.391Z,101.50
2022-08-22T04:46:45.616Z,103.13
2022-08-22T04:49:15.191Z,101.20
2022-08-22T04:51:46.791Z,100.55
2022-08-22T04:54:32.736Z,101.43
2022-08-22T04:57:54.083Z,96.47
2022-08-22T05:00:21.384Z,94.15
2022-08-22T05:02:52.841Z,96.50
2022-08-22T05:05:26.995Z,98.65
2022-08-22T05:08:02.990Z,104.70
2022-08-22T05:10:46.445Z,91.13
2022-08-22T05:13:24.398Z,99.47
2022-08-22T05:15:56.570Z,107.05
2022-08-22T05:18:29.801Z,99.78
2022-08-22T05:21:01.706Z,91.40
2022-08-22T05:23:43.692Z,107.40
2022-08-22T05:26:13.460Z,104.43
2022-08-22T05:28:56.552Z,103.15
2022-08-22T05:31:29.551Z,105.00
2022-08-22T05:34:06.268Z,103.13
2022-08-22T05:36:43.088Z,107.47
2022-08-22T05:39:17.048Z,107.72
2022-08-22T05:41:45.203Z,104.72
2022-08-22T05:44:24.794Z,107.43
2022-08-22T05:47:01.143Z,102.80
2022-08-22T05:49:39.453Z,103.40
2022-08-22T05:52:06.886Z,102.75
2022-08-22T05:54:55.694Z,98.78
2022-08-22T05:57:22.836Z,102.50
2022-08-22T05:59:59.198Z,95.97
2022-08-22T06:02:56.438Z,96.20
2022-08-22T06:05:28.421Z,103.10
2022-08-22T06:08:04.539Z,96.38
2022-08-22T06:10:43.064Z,91.40
2022-08-22T06:13:16.295Z,88.68
2022-08-22T06:16:06.465Z,100.85
2022-08-22T06:18:39.220Z,98.18
2022-08-22T06:21:21.157Z,88.15
2022-08-22T06:23:56.833Z,90.60
2022-08-22T06:26:26.814Z,85.22
2022-08-22T06:28:57.907Z,86.72
2022-08-22T06:31:46.990Z,89.43
2022-08-22T06:34:31.331Z,87.18
2022-08-22T06:37:04.487Z,86.78
2022-08-22T06:39:38.796Z,92.22
2022-08-22T06:42:22.899Z,89.65
2022-08-22T06:44:54.708Z,92.90
2022-08-22T06:47:30.492Z,85.05
2022-08-22T06:50:13.565Z,83.60
2022-08-22T06:52:52.345Z,78.00
2022-08-22T06:55:21.579Z,85.63
2022-08-22T06:58:05.686Z,86.22
2022-08-22T07:00:35.636Z,83.15
2022-08-22T07:03:30.248Z,78.53
2022-08-22T07:05:58.068Z,82.20
2022-08-22T07:08:28.811Z,81.82
2022-08-22T07:11:04.445Z,79.15
2022-08-22T07:13:33.777Z,76.80
2022-08-22T07:16:07.580Z,79.65
2022-08-22T07:18:35.119Z,83.25
2022-08-22T07:21:04.982Z,83.95
2022-08-22T07:23:44.656Z,82.07
2022-08-22T07:26:40.452Z,76.80
2022-08-22T07:29:28.104Z,78.55
2022-08-22T07:32:06.131Z,83.82
2022-08-22T07:34:39.553Z,81.10
2022-08-22T07:37:19.603Z,82.18
2022-08-22T07:40:18.942Z,76.05
2022-08-22T07:42:52.473Z,73.57
2022-08-22T07:45:31.672Z,77.50
2022-08-22T07:48:10.767Z,83.85
2022-08-22T07:50:58.713Z,76.55
2022-08-22T07:53:39.442Z,79.22
2022-08-22T07:56:12.782Z,77.07
2022-08-22T07:58:43.148Z,77.07
2022-08-22T08:01:15.984Z,78.00
2022-08-22T08:03:49.844Z,80.57
2022-08-22T08:06:17.439Z,72.22
2022-08-22T08:08:45.257Z,82.28
2022-08-22T08:11:17.225Z,75.43
2022-08-22T08:13:49.757Z,76.85
2022-08-22T08:16:19.850Z,78.78
2022-08-22T08:18:50.100Z,80.95
2022-08-22T08:21:41.793Z,76.05
2022-08-22T08:24:14.684Z,73.50
2022-08-22T08:27:08.552Z,78.05
2022-08-22T08:29:37.289Z,79.57
2022-08-22T08:32:10.764Z,73.78
2022-08-22T08:34:40.234Z,81.68
2022-08-22T08:37:37.008Z,76.03
2022-08-22T08:40:18.347Z,83.50
2022-08-22T08:43:27.549Z,81.00
2022-08-22T08:46:16.120Z,87.57
2022-08-22T08:49:01.461Z,78.65
2022-08-22T08:51:45.661Z,78.97
2022-08-22T08:54:40.797Z,77.50
2022-08-22T08:57:15.512Z,80.43
2022-08-22T09:00:14.839Z,81.88
2022-08-22T09:02:58.897Z,83.65
2022-08-22T09:05:26.045Z,75.70
2022-08-22T09:07:58.689Z,75.30
2022-08-22T09:10:55.203Z,73.13
2022-08-22T09:13:29.859Z,79.53
2022-08-22T09:16:22.708Z,68.05
2022-08-22T09:19:01.400Z,72.20
2022-08-22T09:21:59.809Z,67.85
2022-08-22T09:25:06.133Z,68.07
2022-08-22T09:27:45.950Z,65.82
2022-08-22T09:33:17.919Z,65.38
2022-08-22T09:36:13.353Z,67.90
2022-08-22T09:39:14.221Z,73.43
2022-08-22T09:41:58.884Z,73.30
2022-08-22T09:45:11.585Z,64.15
2022-08-22T09:50:30.888Z,68.97
2022-08-22T09:53:15.405Z,69.53
2022-08-22T09:56:02.049Z,59.47
2022-08-22T09:59:01.499Z,63.10
2022-08-22T10:02:15.748Z,56.03
2022-08-22T10:05:40.808Z,55.05
2022-08-22T10:08:13.186Z,47.38
2022-08-22T10:11:08.302Z,55.20
2022-08-22T10:14:00.931Z,52.63
2022-08-22T10:16:31.904Z,49.78
2022-08-22T10:19:19.040Z,50.42
2022-08-22T10:22:06.118Z,53.28
2022-08-22T10:24:52.424Z,45.05
2022-08-22T10:27:31.783Z,48.47
2022-08-22T10:30:04.677Z,47.47
2022-08-22T10:32:42.910Z,42.53
2022-08-22T10:35:21.231Z,43.13
2022-08-22T10:38:06.394Z,40.30
2022-08-22T10:41:05.446Z,32.25
2022-08-22T10:43:56.568Z,31.77
2022-08-22T10:46:31.736Z,29.58
2022-08-22T10:49:07.868Z,23.77
2022-08-22T10:51:42.660Z,25.35
2022-08-22T10:54:19.923Z,21.75
2022-08-22T10:57:12.269Z,22.52
2022-08-22T11:00:33.016Z,17.85
2022-08-22T11:03:23.413Z,25.42
2022-08-22T11:06:00.372Z,19.23
2022-08-22T11:08:54.563Z,25.13
2022-08-22T11:11:50.344Z,25.95
2022-08-22T11:14:45.509Z,24.95
2022-08-22T11:17:31.110Z,25.23
2022-08-22T11:20:19.602Z,15.38
2022-08-22T11:23:07.476Z,20.80
2022-08-22T11:26:14.586Z,10.98
2022-08-22T11:29:25.278Z,20.58
2022-08-22T11:32:05.939Z,27.15
2022-08-22T11:34:44.807Z,27.45
2022-08-22T11:37:42.873Z,29.50
2022-08-22T11:40:33.650Z,23.92
2022-08-22T11:43:08.033Z,25.73
2022-08-22T11:45:49.312Z,27.67
2022-08-22T11:48:32.783Z,28.90
2022-08-22T11:51:25.050Z,28.73
2022-08-22T11:54:31.742Z,27.98
2022-08-22T11:57:10.345Z,29.95
2022-08-22T12:00:23.291Z,30.67
2022-08-22T12:03:16.542Z,22.20
2022-08-22T12:05:48.710Z,21.30
2022-08-22T12:08:31.345Z,23.30
2022-08-22T12:11:03.708Z,22.50
2022-08-22T12:14:03.994Z,24.40
2022-08-22T12:16:42.800Z,21.88
2022-08-22T12:19:32.960Z,16.40
2022-08-22T12:22:03.382Z,14.18
2022-08-22T12:24:40.874Z,21.98
2022-08-22T12:27:36.343Z,8.63
2022-08-22T12:30:42.837Z,13.27
2022-08-22T12:33:31.702Z,11.50
2022-08-22T12:36:06.447Z,7.40
2022-08-22T12:39:01.500Z,9.60
2022-08-22T12:41:46.750Z,8.77
2022-08-22T12:44:55.328Z,7.97
2022-08-22T12:47:57.197Z,11.05
2022-08-22T12:50:27.258Z,8.00
2022-08-22T12:53:21.689Z,12.02
2022-08-22T12:56:06.788Z,10.65
2022-08-22T12:58:58.929Z,11.45
2022-08-22T13:01:34.270Z,7.63
2022-08-22T13:04:08.835Z,6.22
2022-08-22T13:06:36.196Z,9.18
2022-08-22T13:09:22.856Z,9.70
2022-08-22T13:12:02.476Z,7.28
2022-08-22T13:14:32.158Z,13.10
2022-08-22T13:17:10.248Z,9.50
2022-08-22T13:20:10.496Z,10.90
2022-08-22T13:22:45.404Z,15.82
2022-08-22T13:26:11.552Z,10.25
2022-08-22T13:28:56.877Z,8.85
2022-08-22T13:31:39.305Z,17.87
2022-08-22T13:34:12.525Z,10.93
2022-08-22T13:36:51.632Z,15.82
2022-08-22T13:39:27.094Z,12.13
2022-08-22T13:41:58.189Z,7.93
2022-08-22T13:44:36.828Z,6.97
2022-08-22T13:47:31.762Z,13.35
2022-08-22T13:50:37.517Z,11.43
2022-08-22T13:53:41.633Z,15.00
2022-08-22T13:56:21.420Z,9.93
2022-08-22T13:58:55.027Z,9.68
2022-08-22T14:01:40.858Z,10.27
2022-08-22T14:04:33.547Z,12.77
2022-08-22T14:07:04.546Z,10.07
2022-08-22T14:09:51.285Z,10.05
2022-08-22T14:12:24.688Z,15.60
2022-08-22T14:15:02.549Z,13.80
2022-08-22T14:17:43.051Z,13.65
2022-08-22T14:20:33.524Z,8.20
2022-08-22T14:23:29.351Z,12.45
2022-08-22T14:25:59.261Z,13.90
2022-08-22T14:28:33.975Z,11.68
2022-08-22T14:34:39.073Z,10.25
2022-08-22T14:37:15.584Z,10.90
2022-08-22T14:39:49.213Z,12.65
2022-08-22T14:42:26.562Z,8.70
2022-08-22T14:45:18.681Z,6.78
2022-08-22T14:48:29.464Z,9.88
2022-08-22T14:51:05.986Z,7.97
2022-08-22T14:53:40.476Z,6.93
2022-08-22T14:56:24.203Z,13.20
2022-08-22T14:59:03.007Z,11.77
2022-08-22T15:01:35.005Z,7.95
2022-08-22T15:04:11.675Z,5.45
2022-08-22T15:06:48.187Z,7.85
2022-08-22T15:09:56.100Z,9.27
2022-08-22T15:12:31.471Z,7.65
2022-08-22T15:15:01.844Z,9.90
2022-08-22T15:17:37.451Z,9.55
2022-08-22T15:20:11.729Z,12.68
2022-08-22T15:22:45.521Z,6.15
2022-08-22T15:25:22.268Z,10.27
2022-08-22T15:28:14.412Z,9.25
2022-08-22T15:31:03.720Z,9.23
2022-08-22T15:33:34.240Z,7.50
2022-08-22T15:36:27.990Z,8.80
2022-08-22T15:39:35.098Z,5.93
2022-08-22T15:42:05.544Z,7.63
2022-08-22T15:44:40.276Z,10.57
2022-08-22T15:47:35.022Z,8.70
2022-08-22T15:50:29.715Z,15.18
2022-08-22T15:53:20.758Z,10.82
2022-08-22T15:56:11.082Z,12.60
2022-08-22T15:58:48.615Z,8.27
2022-08-22T16:01:23.063Z,7.10
2022-08-22T16:04:00.832Z,10.23
2022-08-22T16:06:50.629Z,12.77
2022-08-22T16:09:43.495Z,5.25
2022-08-22T16:12:24.847Z,6.88
2022-08-22T16:14:52.608Z,8.30
2022-08-22T16:17:28.532Z,8.98
2022-08-22T16:20:09.968Z,9.35
2022-08-22T16:22:58.841Z,8.23
2022-08-22T16:25:47.582Z,8.30
2022-08-22T16:28:56.260Z,7.35
2022-08-22T16:31:21.830Z,8.02
2022-08-22T16:33:49.191Z,9.90
2022-08-22T16:36:39.032Z,15.20
2022-08-22T16:39:21.494Z,5.78
2022-08-22T16:42:23.481Z,8.57
2022-08-22T16:45:08.453Z,11.05
2022-08-22T16:47:40.929Z,7.32
2022-08-22T16:50:22.433Z,9.45
2022-08-22T16:53:07.778Z,10.82
2022-08-22T16:55:39.462Z,10.45
2022-08-22T16:58:57.098Z,12.07
2022-08-22T17:02:05.263Z,9.25
2022-08-22T17:04:32.446Z,9.73
2022-08-22T17:07:34.640Z,11.10
2022-08-22T17:10:20.005Z,12.85
2022-08-22T17:13:02.933Z,15.38
2022-08-22T17:15:39.914Z,13.13
2022-08-22T17:18:44.713Z,15.02
2022-08-22T17:21:25.889Z,22.42
2022-08-22T17:24:34.103Z,21.77
2022-08-22T17:27:30.302Z,12.02
2022-08-22T17:30:02.865Z,11.18
2022-08-22T17:32:37.791Z,12.18
2022-08-22T17:35:25.042Z,12.88
2022-08-22T17:38:13.812Z,16.25
2022-08-22T17:41:06.898Z,14.30
2022-08-22T17:44:01.171Z,10.35
2022-08-22T17:46:42.956Z,11.00
2022-08-22T17:49:20.316Z,12.18
2022-08-22T17:51:55.683Z,12.27
2022-08-22T17:54:49.824Z,12.60
2022-08-22T17:57:38.970Z,14.68
2022-08-22T18:00:48.633Z,10.02
2022-08-22T18:03:45.097Z,10.70
2022-08-22T18:06:23.911Z,13.63
2022-08-22T18:09:19.077Z,14.40
2022-08-22T18:12:17.753Z,10.32
2022-08-22T18:15:02.347Z,10.32
2022-08-22T18:17:44.337Z,7.65
2022-08-22T18:20:45.740Z,6.05
2022-08-22T18:23:36.197Z,9.73
2022-08-22T18:26:27.173Z,15.82
2022-08-22T18:29:00.458Z,12.38
2022-08-22T18:31:47.944Z,7.45
2022-08-22T18:34:38.284Z,12.13
2022-08-22T18:37:41.587Z,8.25
2022-08-22T18:40:22.212Z,10.98
2022-08-22T18:42:54.513Z,9.20
2022-08-22T18:45:51.102Z,11.02
2022-08-22T18:48:49.465Z,9.55
2022-08-22T18:51:28.988Z,9.10
2022-08-22T18:54:05.039Z,10.35
2022-08-22T18:56:34.286Z,10.50
2022-08-22T18:59:20.188Z,8.75
2022-08-22T19:02:10.533Z,7.38
2022-08-22T19:04:53.536Z,7.47
2022-08-22T19:08:08.011Z,9.10
2022-08-22T19:10:50.116Z,15.57
2022-08-22T19:13:25.436Z,10.67
2022-08-22T19:16:11.556Z,9.25
2022-08-22T19:19:03.419Z,10.43
2022-08-22T19:21:52.545Z,8.53
2022-08-22T19:24:29.912Z,10.70
2022-08-22T19:27:11.671Z,12.32
2022-08-22T19:29:55.394Z,9.85
2022-08-22T19:32:55.034Z,14.75
2022-08-22T19:35:40.905Z,10.73
2022-08-22T19:38:09.800Z,14.65
2022-08-22T19:42:02.044Z,10.38
2022-08-22T19:44:22.940Z,13.50
2022-08-22T19:47:39.721Z,15.90
2022-08-22T19:50:21.428Z,13.45
2022-08-22T19:53:27.798Z,15.50
2022-08-22T19:56:42.143Z,11.30
2022-08-22T20:00:33.621Z,14.18
2022-08-22T20:03:02.296Z,12.18
2022-08-22T20:05:56.595Z,11.63
2022-08-22T20:08:46.159Z,13.77
2022-08-22T20:11:47.297Z,14.52
2022-08-22T20:14:51.277Z,13.60
2022-08-22T20:17:30.754Z,20.75
2022-08-22T20:20:30.608Z,13.95
2022-08-22T20:23:06.821Z,13.70
2022-08-22T20:26:15.619Z,13.02
2022-08-22T20:29:00.089Z,17.77
2022-08-22T20:32:36.308Z,18.60
2022-08-22T20:40:55.217Z,17.00
2022-08-22T20:44:25.959Z,22.90
2022-08-22T20:47:04.788Z,24.90
2022-08-22T20:49:56.232Z,25.15
2022-08-22T20:52:33.360Z,23.73
2022-08-22T20:56:05.302Z,21.77
2022-08-22T20:58:38.644Z,21.67
2022-08-22T21:01:12.202Z,22.65
2022-08-22T21:04:24.575Z,22.10
2022-08-22T21:07:05.567Z,27.70
2022-08-22T21:09:51.726Z,25.23
2022-08-22T21:12:50.518Z,24.35
2022-08-22T21:15:31.338Z,22.27
2022-08-22T21:18:02.593Z,23.75
2022-08-22T21:20:34.307Z,20.70
2022-08-22T21:23:11.432Z,29.33
2022-08-22T21:26:11.030Z,28.40
2022-08-22T21:29:22.025Z,30.38
2022-08-22T21:36:50.848Z,30.30
2022-08-22T21:39:44.066Z,28.42
2022-08-22T21:45:55.678Z,31.08
2022-08-22T21:48:44.309Z,31.63
2022-08-22T21:51:44.028Z,30.08
2022-08-22T21:54:22.690Z,33.55
2022-08-22T21:56:53.080Z,31.17
2022-08-22T21:59:24.952Z,31.88
2022-08-22T22:01:55.550Z,32.47
2022-08-22T22:04:25.228Z,37.78
2022-08-22T22:06:52.443Z,39.38
2022-08-22T22:09:25.790Z,33.75
2022-08-22T22:11:52.994Z,39.97
2022-08-22T22:14:20.358Z,31.27
2022-08-22T22:16:47.560Z,34.33
2022-08-22T22:19:15.276Z,34.85
2022-08-22T22:21:42.404Z,36.50
2022-08-22T22:24:09.613Z,33.10
2022-08-22T22:26:36.881Z,38.03
2022-08-22T22:29:04.248Z,35.67
2022-08-22T22:31:31.804Z,41.65
2022-08-22T22:34:01.193Z,30.48
2022-08-22T22:36:28.700Z,32.65
2022-08-22T22:38:55.929Z,32.28
2022-08-22T22:41:26.028Z,31.45
2022-08-22T22:43:54.528Z,37.88
2022-08-22T22:46:24.720Z,35.75
2022-08-22T22:48:53.129Z,33.67
2022-08-22T22:51:20.522Z,37.97
2022-08-22T22:53:47.958Z,35.70
2022-08-22T22:56:21.510Z,32.28
2022-08-22T22:59:00.780Z,35.30
2022-08-22T23:01:38.593Z,36.25
2022-08-22T23:04:08.298Z,32.22
2022-08-22T23:06:35.588Z,32.90
2022-08-22T23:09:03.269Z,36.67
2022-08-22T23:11:31.349Z,36.55
2022-08-22T23:13:58.551Z,37.10
2022-08-22T23:16:28.862Z,30.42
2022-08-22T23:18:56.475Z,33.40
2022-08-22T23:21:27.855Z,27.17
2022-08-22T23:23:59.551Z,31.40
2022-08-22T23:26:28.360Z,28.23
2022-08-22T23:28:56.744Z,29.88
2022-08-22T23:31:34.563Z,33.30
2022-08-22T23:34:33.212Z,41.88
2022-08-22T23:37:02.479Z,33.58
2022-08-22T23:39:35.634Z,31.08
2022-08-22T23:42:02.889Z,38.65
2022-08-22T23:44:33.306Z,41.90
2022-08-22T23:47:01.595Z,34.42
2022-08-22T23:49:29.989Z,36.75
2022-08-22T23:51:58.105Z,34.47
2022-08-22T23:54:25.721Z,35.10
2022-08-22T23:56:57.864Z,33.88
2022-08-22T23:59:30.651Z,32.40
